createdAt,value
2017-12-19T00:02:07.498Z,20.23
2017-12-19T00:04:35.787Z,18.97
2017-12-19T00:07:03.328Z,22.77
2017-12-19T00:09:30.923Z,22.47
2017-12-19T00:11:59.196Z,22.93
2017-12-19T00:14:27.487Z,20.83
2017-12-19T00:16:55.766Z,20.07
2017-12-19T00:19:24.053Z,21.67
2017-12-19T00:21:51.558Z,18.83
2017-12-19T00:24:19.074Z,22.83
2017-12-19T00:26:46.571Z,22.40
2017-12-19T00:29:14.122Z,25.53
2017-12-19T00:31:41.627Z,19.77
2017-12-19T00:34:09.898Z,21.50
2017-12-19T00:36:38.183Z,20.97
2017-12-19T00:39:05.695Z,21.93
2017-12-19T00:41:33.210Z,20.43
2017-12-19T00:44:00.715Z,26.13
2017-12-19T00:46:28.239Z,23.20
2017-12-19T00:48:55.751Z,20.37
2017-12-19T00:51:23.276Z,26.57
2017-12-19T00:53:50.778Z,25.23
2017-12-19T00:56:19.063Z,19.07
2017-12-19T00:58:47.326Z,26.17
2017-12-19T01:01:14.846Z,23.00
2017-12-19T01:03:42.847Z,18.07
2017-12-19T01:06:10.372Z,27.87
2017-12-19T01:08:37.903Z,24.70
2017-12-19T01:11:05.422Z,22.23
2017-12-19T01:13:32.923Z,21.53
2017-12-19T01:16:00.455Z,20.13
2017-12-19T01:18:28.717Z,26.80
2017-12-19T01:20:56.234Z,22.40
2017-12-19T01:23:23.772Z,24.83
2017-12-19T01:25:52.035Z,23.03
2017-12-19T01:28:19.559Z,18.87
2017-12-19T01:30:47.064Z,18.00
2017-12-19T01:33:14.587Z,19.63
2017-12-19T01:35:42.873Z,23.20
2017-12-19T01:38:11.158Z,23.30
2017-12-19T01:40:39.427Z,19.83
2017-12-19T01:43:07.718Z,24.33
2017-12-19T01:45:35.227Z,21.40
2017-12-19T01:48:02.748Z,19.57
2017-12-19T01:50:30.255Z,27.63
2017-12-19T01:52:57.783Z,23.63
2017-12-19T01:55:25.291Z,18.97
2017-12-19T01:57:53.582Z,24.60
2017-12-19T02:00:21.086Z,17.70
2017-12-19T02:02:48.612Z,21.60
2017-12-19T02:05:16.122Z,20.80
2017-12-19T02:07:43.642Z,22.00
2017-12-19T02:10:11.147Z,21.53
2017-12-19T02:12:39.438Z,26.20
2017-12-19T02:15:07.702Z,22.50
2017-12-19T02:17:35.988Z,20.83
2017-12-19T02:20:04.255Z,23.33
2017-12-19T02:22:32.547Z,21.33
2017-12-19T02:25:00.051Z,23.90
2017-12-19T02:27:27.550Z,21.30
2017-12-19T02:29:55.834Z,22.70
2017-12-19T02:32:24.106Z,26.30
2017-12-19T02:34:52.394Z,25.60
2017-12-19T02:37:19.892Z,24.60
2017-12-19T02:39:47.453Z,29.53
2017-12-19T02:42:14.991Z,27.27
2017-12-19T02:44:42.517Z,29.33
2017-12-19T02:47:10.849Z,22.30
2017-12-19T02:49:38.330Z,28.50
2017-12-19T02:52:05.839Z,25.40
2017-12-19T02:54:33.363Z,24.93
2017-12-19T02:57:01.675Z,23.30
2017-12-19T02:59:29.226Z,23.03
2017-12-19T03:01:56.764Z,26.17
2017-12-19T03:04:25.081Z,26.70
2017-12-19T03:06:52.601Z,29.17
2017-12-19T03:09:20.176Z,24.87
2017-12-19T03:11:47.724Z,28.20
2017-12-19T03:14:15.275Z,30.23
2017-12-19T03:16:43.543Z,26.80
2017-12-19T03:19:11.822Z,28.03
2017-12-19T03:21:40.111Z,29.60
2017-12-19T03:24:07.617Z,27.07
2017-12-19T03:26:35.150Z,38.53
2017-12-19T03:29:02.659Z,30.37
2017-12-19T03:31:30.182Z,33.53
2017-12-19T03:33:57.690Z,31.47
2017-12-19T03:36:25.975Z,32.50
2017-12-19T03:38:54.247Z,34.30
2017-12-19T03:41:22.531Z,36.60
2017-12-19T03:43:50.036Z,37.73
2017-12-19T03:46:17.562Z,39.67
2017-12-19T03:48:45.066Z,35.60
2017-12-19T03:51:12.591Z,36.10
2017-12-19T03:53:40.095Z,36.77
2017-12-19T03:56:08.395Z,37.97
2017-12-19T03:58:35.904Z,40.27
2017-12-19T04:01:03.427Z,38.23
2017-12-19T04:03:30.935Z,43.23
2017-12-19T04:05:58.470Z,43.00
2017-12-19T04:08:25.978Z,37.07
2017-12-19T04:10:54.262Z,36.37
2017-12-19T04:13:22.539Z,40.40
2017-12-19T04:15:50.047Z,38.60
2017-12-19T04:18:17.572Z,42.20
2017-12-19T04:20:45.079Z,39.70
2017-12-19T04:23:12.599Z,47.73
2017-12-19T04:25:40.103Z,44.13
2017-12-19T04:28:07.667Z,37.00
2017-12-19T04:30:35.941Z,42.13
2017-12-19T04:33:03.985Z,37.50
2017-12-19T04:35:32.298Z,41.90
2017-12-19T04:38:00.588Z,41.03
2017-12-19T04:40:28.090Z,36.97
2017-12-19T04:42:55.611Z,37.17
2017-12-19T04:45:23.119Z,41.50
2017-12-19T04:47:50.639Z,39.67
2017-12-19T04:50:18.138Z,41.03
2017-12-19T04:52:45.659Z,38.73
2017-12-19T04:55:13.163Z,33.13
2017-12-19T04:57:40.689Z,43.13
2017-12-19T05:00:08.199Z,36.30
2017-12-19T05:02:36.489Z,41.57
2017-12-19T05:05:03.991Z,31.80
2017-12-19T05:07:31.550Z,31.63
2017-12-19T05:09:59.820Z,35.50
2017-12-19T05:12:27.329Z,31.33
2017-12-19T05:14:55.618Z,38.63
2017-12-19T05:17:23.125Z,33.53
2017-12-19T05:19:50.648Z,33.17
2017-12-19T05:22:18.155Z,33.73
2017-12-19T05:24:45.675Z,38.00
2017-12-19T05:27:13.178Z,41.60
2017-12-19T05:29:40.706Z,35.77
2017-12-19T05:32:08.210Z,37.30
2017-12-19T05:34:36.499Z,39.50
2017-12-19T05:37:04.005Z,37.17
2017-12-19T05:39:31.530Z,38.83
2017-12-19T05:41:59.038Z,36.20
2017-12-19T05:44:26.554Z,40.57
2017-12-19T05:46:54.104Z,43.77
2017-12-19T05:49:22.687Z,35.03
2017-12-19T05:51:50.191Z,35.27
2017-12-19T05:54:17.713Z,35.10
2017-12-19T05:56:45.219Z,40.40
2017-12-19T05:59:12.747Z,38.30
2017-12-19T06:01:40.255Z,34.93
2017-12-19T06:04:07.786Z,38.00
2017-12-19T06:06:35.292Z,39.67
2017-12-19T06:09:02.799Z,44.93
2017-12-19T06:11:30.617Z,39.13
2017-12-19T06:13:58.123Z,41.23
2017-12-19T06:16:25.649Z,36.73
2017-12-19T06:18:53.155Z,39.50
2017-12-19T06:21:21.438Z,39.30
2017-12-19T06:23:49.711Z,37.60
2017-12-19T06:26:18.004Z,39.00
2017-12-19T06:28:45.520Z,33.30
2017-12-19T06:31:13.039Z,33.17
2017-12-19T06:33:40.551Z,40.87
2017-12-19T06:36:08.071Z,41.33
2017-12-19T06:38:35.570Z,38.80
2017-12-19T06:41:03.935Z,45.27
2017-12-19T06:43:31.649Z,47.93
2017-12-19T06:45:59.176Z,48.30
2017-12-19T06:48:27.452Z,49.73
2017-12-19T06:50:55.748Z,42.10
2017-12-19T07:08:40.125Z,40.50
2017-12-19T07:11:07.670Z,43.53
2017-12-19T07:13:35.952Z,40.40
2017-12-19T07:16:03.458Z,47.13
2017-12-19T07:18:30.979Z,48.97
2017-12-19T07:20:58.491Z,45.77
2017-12-19T07:23:26.783Z,44.17
2017-12-19T07:25:54.299Z,49.30
2017-12-19T07:28:21.826Z,44.77
2017-12-19T07:30:49.330Z,52.73
2017-12-19T07:33:16.850Z,48.77
2017-12-19T07:35:44.364Z,43.80
2017-12-19T07:38:11.894Z,43.93
2017-12-19T07:40:39.403Z,42.50
2017-12-19T07:43:06.926Z,45.87
2017-12-19T07:45:35.204Z,43.23
2017-12-19T07:48:03.490Z,43.90
2017-12-19T07:50:31.760Z,45.57
2017-12-19T07:53:00.054Z,45.47
2017-12-19T07:55:27.568Z,50.40
2017-12-19T07:57:55.098Z,43.80
2017-12-19T08:00:22.610Z,51.00
2017-12-19T08:02:50.918Z,38.23
2017-12-19T08:05:18.444Z,40.40
2017-12-19T08:07:46.723Z,49.73
2017-12-19T08:10:15.016Z,42.87
2017-12-19T08:12:42.529Z,44.87
2017-12-19T08:15:10.067Z,44.37
2017-12-19T08:17:37.571Z,48.83
2017-12-19T08:20:05.868Z,44.17
2017-12-19T08:22:33.375Z,48.40
2017-12-19T08:25:00.903Z,46.07
2017-12-19T08:27:28.415Z,45.90
2017-12-19T08:29:56.711Z,50.17
2017-12-19T08:32:24.222Z,49.00
2017-12-19T08:34:51.756Z,54.67
2017-12-19T08:37:19.265Z,44.77
2017-12-19T08:39:47.599Z,47.47
2017-12-19T08:42:15.107Z,47.53
2017-12-19T08:44:43.383Z,53.93
2017-12-19T08:47:11.680Z,49.07
2017-12-19T08:49:39.193Z,51.33
2017-12-19T08:52:07.500Z,51.57
2017-12-19T08:54:35.774Z,48.27
2017-12-19T08:57:04.060Z,49.57
2017-12-19T08:59:31.567Z,45.07
2017-12-19T09:01:59.095Z,47.00
2017-12-19T09:04:26.604Z,50.67
2017-12-19T09:06:54.134Z,57.13
2017-12-19T09:09:21.642Z,52.63
2017-12-19T09:11:49.935Z,44.23
2017-12-19T09:14:17.453Z,49.50
2017-12-19T09:16:45.015Z,53.00
2017-12-19T09:19:12.523Z,44.73
2017-12-19T09:21:40.043Z,49.63
2017-12-19T09:24:08.382Z,55.23
2017-12-19T09:26:35.930Z,48.83
2017-12-19T09:29:03.461Z,52.97
2017-12-19T09:34:35.945Z,43.40
2017-12-19T09:37:04.167Z,49.63
2017-12-19T09:39:35.560Z,49.30
2017-12-19T09:42:04.085Z,53.00
2017-12-19T09:56:25.967Z,47.60
2017-12-19T09:58:53.517Z,44.23
2017-12-19T10:01:21.084Z,53.07
2017-12-19T10:09:45.365Z,41.70
2017-12-19T10:12:13.972Z,40.80
2017-12-19T10:14:41.520Z,45.07
2017-12-19T10:17:09.899Z,42.83
2017-12-19T10:19:38.227Z,46.70
2017-12-19T10:22:05.828Z,46.70
2017-12-19T10:24:34.259Z,37.27
2017-12-19T10:27:02.004Z,46.03
2017-12-19T10:29:29.627Z,37.87
2017-12-19T10:31:58.323Z,52.10
2017-12-19T10:34:26.668Z,49.87
2017-12-19T10:36:54.240Z,39.60
2017-12-19T10:39:21.811Z,41.17
2017-12-19T10:41:49.359Z,46.27
2017-12-19T10:44:16.893Z,42.70
2017-12-19T10:46:44.411Z,44.67
2017-12-19T10:49:12.683Z,43.17
2017-12-19T10:51:40.968Z,46.50
2017-12-19T10:54:08.469Z,38.90
2017-12-19T10:56:35.983Z,38.40
2017-12-19T10:59:04.255Z,45.97
2017-12-19T11:01:32.544Z,50.20
2017-12-19T11:04:00.048Z,36.60
2017-12-19T11:06:27.569Z,29.03
2017-12-19T11:08:55.076Z,37.97
2017-12-19T11:11:22.604Z,38.43
2017-12-19T11:13:50.107Z,31.80
2017-12-19T11:16:18.398Z,31.13
2017-12-19T11:18:46.672Z,29.67
2017-12-19T11:21:14.960Z,33.97
2017-12-19T11:26:46.295Z,28.33
2017-12-19T11:29:13.942Z,38.93
2017-12-19T11:31:41.536Z,36.37
2017-12-19T11:34:09.120Z,39.47
2017-12-19T11:36:36.793Z,37.10
2017-12-19T11:41:38.970Z,37.30
2017-12-19T11:44:06.532Z,31.00
2017-12-19T11:46:34.069Z,35.73
2017-12-19T11:49:01.590Z,36.17
2017-12-19T11:51:29.111Z,33.00
2017-12-19T11:53:56.620Z,33.90
2017-12-19T11:56:24.908Z,27.33
2017-12-19T11:58:53.191Z,29.00
2017-12-19T12:01:22.215Z,23.57
2017-12-19T12:03:49.763Z,34.13
2017-12-19T12:06:17.275Z,30.00
2017-12-19T12:08:44.802Z,28.80
2017-12-19T12:11:13.071Z,38.90
2017-12-19T12:13:40.631Z,33.97
2017-12-19T12:16:08.152Z,40.43
2017-12-19T12:18:35.679Z,39.03
2017-12-19T12:21:03.195Z,42.13
2017-12-19T12:23:30.721Z,41.40
2017-12-19T12:25:59.000Z,40.37
2017-12-19T12:28:27.309Z,47.97
2017-12-19T12:30:54.835Z,37.93
2017-12-19T12:33:24.532Z,29.23
2017-12-19T12:35:52.855Z,33.93
2017-12-19T12:47:47.120Z,32.07
2017-12-19T12:50:14.677Z,38.80
2017-12-19T12:52:42.249Z,40.93
2017-12-19T12:55:09.808Z,39.23
2017-12-19T13:09:17.318Z,22.93
2017-12-19T13:11:45.061Z,24.10
2017-12-19T13:14:12.680Z,21.70
2017-12-19T13:16:40.435Z,18.00
2017-12-19T13:19:08.075Z,20.83
2017-12-19T13:21:35.793Z,31.30
2017-12-19T13:24:04.225Z,26.00
2017-12-19T13:26:31.840Z,21.43
2017-12-19T13:29:00.297Z,22.73
2017-12-19T13:31:28.413Z,25.87
2017-12-19T13:33:56.107Z,31.20
2017-12-19T13:36:23.810Z,18.27
2017-12-19T13:38:52.206Z,21.20
2017-12-19T13:41:19.808Z,22.03
2017-12-19T13:46:51.625Z,24.70
2017-12-19T13:49:19.927Z,30.73
2017-12-19T13:51:48.288Z,31.60
2017-12-19T13:54:16.656Z,27.07
2017-12-19T13:56:44.187Z,29.77
2017-12-19T13:59:11.867Z,29.03
2017-12-19T14:01:39.455Z,33.40
2017-12-19T14:06:41.732Z,41.37
2017-12-19T14:09:10.100Z,32.77
2017-12-19T14:17:44.783Z,43.23
2017-12-19T14:20:13.139Z,33.13
2017-12-19T14:25:37.687Z,43.63
2017-12-19T14:28:05.207Z,36.63
2017-12-19T14:30:33.043Z,36.87
2017-12-19T14:33:00.563Z,40.73
2017-12-19T14:35:28.823Z,41.60
2017-12-19T14:37:57.110Z,39.37
2017-12-19T14:40:25.383Z,40.80
2017-12-19T14:42:53.663Z,37.30
2017-12-19T14:45:21.932Z,41.83
2017-12-19T14:47:50.220Z,36.23
2017-12-19T14:50:18.487Z,43.17
2017-12-19T14:52:46.763Z,47.23
2017-12-19T14:55:15.027Z,47.20
2017-12-19T14:57:42.552Z,46.77
2017-12-19T15:00:10.046Z,49.63
2017-12-19T15:02:37.563Z,46.37
2017-12-19T15:05:05.063Z,47.97
2017-12-19T15:07:33.342Z,45.93
2017-12-19T15:10:01.612Z,41.40
2017-12-19T15:12:29.903Z,50.90
2017-12-19T15:14:58.174Z,51.63
2017-12-19T15:17:26.463Z,55.23
2017-12-19T15:19:53.973Z,53.97
2017-12-19T15:22:21.490Z,48.00
2017-12-19T15:24:48.985Z,55.47
2017-12-19T15:27:16.485Z,60.60
2017-12-19T15:29:44.779Z,55.00
2017-12-19T15:32:12.274Z,58.90
2017-12-19T15:34:39.811Z,51.13
2017-12-19T15:37:07.320Z,57.20
2017-12-19T15:39:34.847Z,53.23
2017-12-19T15:42:02.348Z,56.53
2017-12-19T15:44:30.638Z,59.30
2017-12-19T15:46:58.140Z,54.37
2017-12-19T15:49:25.659Z,55.63
2017-12-19T15:51:53.154Z,63.27
2017-12-19T15:54:20.672Z,53.43
2017-12-19T15:56:48.172Z,54.00
2017-12-19T15:59:15.696Z,56.70
2017-12-19T16:01:43.212Z,62.63
2017-12-19T16:04:10.730Z,64.90
2017-12-19T16:06:38.228Z,58.33
2017-12-19T16:09:05.757Z,53.73
2017-12-19T16:11:33.267Z,57.67
2017-12-19T16:14:01.556Z,62.30
2017-12-19T16:16:29.055Z,53.60
2017-12-19T16:18:56.579Z,57.43
2017-12-19T16:21:24.087Z,57.63
2017-12-19T16:23:51.587Z,60.90
2017-12-19T16:26:19.946Z,58.13
2017-12-19T16:28:48.214Z,51.40
2017-12-19T16:31:15.729Z,64.87
2017-12-19T16:33:43.243Z,62.63
2017-12-19T16:36:11.522Z,56.43
2017-12-19T16:38:39.791Z,65.37
2017-12-19T16:41:08.114Z,62.20
2017-12-19T16:43:35.620Z,61.73
2017-12-19T16:46:03.914Z,62.57
2017-12-19T16:48:32.179Z,52.40
2017-12-19T16:51:00.471Z,64.37
2017-12-19T16:53:27.978Z,71.33
2017-12-19T16:55:55.491Z,67.00
2017-12-19T16:58:23.034Z,67.27
2017-12-19T17:00:51.323Z,70.43
2017-12-19T17:03:18.836Z,68.97
2017-12-19T17:05:46.354Z,74.70
2017-12-19T17:08:13.854Z,61.23
2017-12-19T17:10:41.383Z,68.00
2017-12-19T17:13:08.899Z,59.53
2017-12-19T17:15:37.223Z,64.00
2017-12-19T17:18:04.734Z,64.37
2017-12-19T17:20:33.039Z,59.90
2017-12-19T17:23:00.590Z,69.40
2017-12-19T17:25:28.095Z,65.07
2017-12-19T17:27:55.632Z,69.20
2017-12-19T17:30:23.139Z,68.33
2017-12-19T17:32:51.432Z,76.27
2017-12-19T17:35:18.939Z,63.73
2017-12-19T17:37:46.454Z,61.83
2017-12-19T17:40:13.959Z,60.23
2017-12-19T17:42:41.481Z,67.30
2017-12-19T17:45:09.035Z,71.83
2017-12-19T17:47:36.559Z,73.57
2017-12-19T17:50:04.059Z,59.20
2017-12-19T17:52:31.579Z,63.03
2017-12-19T17:54:59.846Z,65.03
2017-12-19T17:57:27.404Z,66.27
2017-12-19T17:59:54.910Z,61.07
2017-12-19T18:02:22.430Z,70.93
2017-12-19T18:04:50.702Z,67.80
2017-12-19T18:07:18.991Z,72.37
2017-12-19T18:09:47.258Z,70.87
2017-12-19T18:12:15.539Z,70.93
2017-12-19T18:14:43.802Z,68.20
2017-12-19T18:17:11.362Z,73.07
2017-12-19T18:19:38.900Z,70.37
2017-12-19T18:22:06.423Z,69.67
2017-12-19T18:24:33.927Z,66.33
2017-12-19T18:27:01.478Z,70.03
2017-12-19T18:29:29.004Z,58.87
2017-12-19T18:31:56.513Z,69.80
2017-12-19T18:34:24.855Z,74.30
2017-12-19T18:36:52.402Z,62.03
2017-12-19T18:39:19.922Z,67.70
2017-12-19T18:41:48.190Z,68.30
2017-12-19T18:44:16.508Z,67.67
2017-12-19T18:46:44.002Z,70.30
2017-12-19T18:49:11.515Z,69.50
2017-12-19T18:51:39.065Z,69.30
2017-12-19T18:54:06.587Z,72.63
2017-12-19T18:56:34.099Z,70.53
2017-12-19T18:59:01.664Z,66.03
2017-12-19T19:01:29.201Z,77.00
2017-12-19T19:03:56.766Z,62.60
2017-12-19T19:06:24.268Z,66.17
2017-12-19T19:08:51.794Z,75.13
2017-12-19T19:11:19.287Z,62.27
2017-12-19T19:13:46.808Z,63.63
2017-12-19T19:16:14.311Z,75.00
2017-12-19T19:18:41.873Z,72.30
2017-12-19T19:21:09.431Z,74.37
2017-12-19T19:23:36.998Z,70.23
2017-12-19T19:26:04.584Z,66.80
2017-12-19T19:28:32.088Z,69.10
2017-12-19T19:30:59.658Z,77.80
2017-12-19T19:33:27.215Z,83.90
2017-12-19T19:35:54.782Z,66.77
2017-12-19T19:38:22.283Z,68.77
2017-12-19T19:40:49.851Z,63.77
2017-12-19T19:43:17.355Z,75.30
2017-12-19T19:45:44.922Z,68.30
2017-12-19T19:48:12.475Z,73.47
2017-12-19T19:50:40.052Z,64.77
2017-12-19T19:53:08.368Z,69.83
2017-12-19T19:55:35.954Z,68.03
2017-12-19T19:58:03.510Z,67.03
2017-12-19T20:00:31.074Z,95.90
2017-12-19T20:02:58.571Z,73.90
2017-12-19T20:05:26.908Z,72.87
2017-12-19T20:07:54.414Z,79.07
2017-12-19T20:10:22.750Z,70.93
2017-12-19T20:12:50.303Z,74.23
2017-12-19T20:15:17.869Z,69.73
2017-12-19T20:17:45.418Z,69.43
2017-12-19T20:20:12.985Z,73.53
2017-12-19T20:22:40.535Z,78.80
2017-12-19T20:25:08.126Z,64.30
2017-12-19T20:27:36.446Z,72.37
2017-12-19T20:30:04.011Z,68.47
2017-12-19T20:32:31.574Z,64.93
2017-12-19T20:34:59.122Z,73.83
2017-12-19T20:37:26.647Z,73.37
2017-12-19T20:39:54.962Z,70.87
2017-12-19T20:42:22.535Z,70.37
2017-12-19T20:44:50.044Z,61.90
2017-12-19T20:47:18.378Z,65.27
2017-12-19T20:49:45.915Z,73.43
2017-12-19T20:52:13.457Z,72.67
2017-12-19T20:54:41.003Z,67.70
2017-12-19T20:57:09.343Z,70.20
2017-12-19T20:59:36.894Z,67.17
2017-12-19T21:02:04.460Z,57.37
2017-12-19T21:04:31.965Z,59.37
2017-12-19T21:06:59.487Z,74.60
2017-12-19T21:09:26.995Z,66.80
2017-12-19T21:11:54.567Z,68.37
2017-12-19T21:14:22.127Z,68.57
2017-12-19T21:16:49.703Z,67.83
2017-12-19T21:19:17.209Z,70.13
2017-12-19T21:21:44.747Z,67.00
2017-12-19T21:24:13.018Z,75.17
2017-12-19T21:26:40.585Z,67.43
2017-12-19T21:29:08.927Z,68.93
2017-12-19T21:31:36.478Z,67.33
2017-12-19T21:34:04.055Z,81.37
2017-12-19T21:36:31.606Z,70.60
2017-12-19T21:38:59.173Z,67.83
2017-12-19T21:41:26.721Z,60.30
2017-12-19T21:43:54.283Z,59.93
2017-12-19T21:46:21.842Z,53.30
2017-12-19T21:48:49.357Z,51.73
2017-12-19T21:51:16.916Z,46.97
2017-12-19T21:53:44.486Z,50.10
2017-12-19T21:56:12.043Z,49.07
2017-12-19T21:58:39.610Z,53.57
2017-12-19T22:01:07.162Z,46.97
2017-12-19T22:03:34.747Z,47.60
2017-12-19T22:06:02.298Z,50.27
2017-12-19T22:08:29.868Z,40.57
2017-12-19T22:10:57.370Z,38.50
2017-12-19T22:13:25.655Z,40.83
2017-12-19T22:15:53.982Z,47.27
2017-12-19T22:18:21.504Z,44.50
2017-12-19T22:20:49.063Z,43.80
2017-12-19T22:23:16.633Z,40.70
2017-12-19T22:25:44.196Z,39.00
2017-12-19T22:28:11.700Z,38.03
2017-12-19T22:30:39.275Z,38.33
2017-12-19T22:33:07.543Z,41.00
2017-12-19T22:35:35.120Z,40.10
2017-12-19T22:38:03.438Z,41.87
2017-12-19T22:40:31.005Z,39.53
2017-12-19T22:42:58.558Z,40.80
2017-12-19T22:45:26.135Z,40.37
2017-12-19T22:47:53.690Z,35.93
2017-12-19T22:50:21.262Z,36.00
2017-12-19T22:52:48.821Z,41.47
2017-12-19T22:55:16.339Z,42.80
2017-12-19T22:57:43.934Z,42.17
2017-12-19T23:00:11.450Z,44.10
2017-12-19T23:02:38.956Z,33.80
2017-12-19T23:05:06.533Z,39.70
2017-12-19T23:07:34.807Z,44.47
2017-12-19T23:10:02.380Z,43.00
2017-12-19T23:12:29.913Z,38.70
2017-12-19T23:14:57.432Z,36.83
2017-12-19T23:17:24.998Z,34.50
2017-12-19T23:19:52.560Z,39.83
2017-12-19T23:22:20.135Z,31.67
2017-12-19T23:24:50.748Z,33.37
2017-12-19T23:27:18.315Z,32.20
2017-12-19T23:29:45.823Z,29.47
2017-12-19T23:32:14.167Z,31.80
2017-12-19T23:34:41.671Z,32.20
2017-12-19T23:37:09.202Z,26.10
2017-12-19T23:39:37.474Z,26.73
2017-12-19T23:42:05.046Z,27.27
2017-12-19T23:44:33.312Z,30.97
2017-12-19T23:47:00.831Z,27.07
2017-12-19T23:49:28.335Z,28.80
2017-12-19T23:51:56.622Z,27.00
2017-12-19T23:54:24.895Z,32.80
2017-12-19T23:56:53.187Z,28.03
2017-12-19T23:59:20.700Z,30.50
